Main page
METAR-TAF:

METAR-TAF

Airports :

Uberlândia Airport

Uberlândia, Minas Gerais, Brazil

latitude: 18-53S, longitude: 048-14W, elevation: 943 m

Current weather observation

The report was made 41 minutes ago, at 03:00 UTC
Wind 11 kt from the Northeast
Temperature 19°C
Humidity 46%
Pressure 1021 hPa
Visibility 10 km or more
no clouds below 1500 m and no cumulonimbus

METAR: SBUL 180300Z 05011KT CAVOK 19/07 Q1021

Time: 00:41 (03:41 UTC)

Forecast

The report was made 5 hours and 11 minutes ago, at 22:30 UTC
Forecast valid from 18 at 00 UTC to 18 at 12 UTC
Wind 5 kt from the Northeast
Visibility 10 km or more
no clouds below 1500 m and no cumulonimbus
Becoming
from 18 at 05 UTC to 18 at 07 UTC
Wind 10 kt from the East/Northeast

TAF: SBUL 172230Z 1800/1812 05005KT CAVOK TX20/1800Z TN17/1808Z BECMG 1805/1807 07010KT RMK PGQ

Weather observations and forecasts of more than 4000 airports (METAR and TAF reports).

The available stations are represented by yellow and red dots on the map.

Hover mouse over dot to see the name of the station.

Then click to see weather observations and forecasts.

To change the map : click on the green buttons with a black cross to zoom in, on the green button with a dash to zoom out, or on the green arrows for adjacent maps.


METAR-TAF: